createdAt,value
2018-10-09T00:02:12.501Z,42.73
2018-10-09T00:04:41.049Z,45.47
2018-10-09T00:07:09.575Z,44.77
2018-10-09T00:09:38.154Z,47.63
2018-10-09T00:12:06.772Z,38.10
2018-10-09T00:14:36.088Z,32.60
2018-10-09T00:17:05.353Z,42.33
2018-10-09T00:19:35.063Z,39.33
2018-10-09T00:22:03.721Z,52.67
2018-10-09T00:24:33.172Z,50.07
2018-10-09T00:27:01.677Z,45.73
2018-10-09T00:29:30.917Z,46.77
2018-10-09T00:31:59.523Z,46.70
2018-10-09T00:34:28.145Z,42.90
2018-10-09T00:36:56.652Z,21.83
2018-10-09T00:39:25.868Z,41.57
2018-10-09T00:41:54.414Z,30.10
2018-10-09T00:44:22.949Z,19.43
2018-10-09T00:46:52.265Z,14.70
2018-10-09T00:49:20.807Z,17.83
2018-10-09T00:51:49.444Z,42.43
2018-10-09T00:54:17.908Z,41.00
2018-10-09T00:56:46.509Z,41.40
2018-10-09T00:59:15.132Z,44.33
2018-10-09T01:01:44.653Z,42.77
2018-10-09T01:04:13.934Z,62.97
2018-10-09T01:06:42.683Z,71.80
2018-10-09T01:09:11.766Z,61.80
2018-10-09T01:11:40.831Z,29.87
2018-10-09T01:14:09.268Z,26.47
2018-10-09T01:16:38.649Z,29.97
2018-10-09T01:19:07.500Z,42.77
2018-10-09T01:21:36.165Z,38.07
2018-10-09T01:24:04.673Z,40.03
2018-10-09T01:26:33.393Z,70.13
2018-10-09T01:29:02.149Z,64.53
2018-10-09T01:31:30.586Z,66.50
2018-10-09T01:33:59.168Z,70.80
2018-10-09T01:36:27.661Z,45.63
2018-10-09T01:38:57.069Z,49.10
2018-10-09T01:41:25.514Z,44.03
2018-10-09T01:43:54.117Z,26.60
2018-10-09T01:46:22.640Z,24.47
2018-10-09T01:48:51.412Z,28.03
2018-10-09T01:51:20.496Z,27.13
2018-10-09T01:53:48.952Z,61.23
2018-10-09T01:56:17.553Z,28.97
2018-10-09T01:58:47.507Z,31.03
2018-10-09T02:01:16.143Z,24.43
2018-10-09T02:03:44.710Z,33.23
2018-10-09T02:06:13.325Z,34.47
2018-10-09T02:08:41.863Z,24.87
2018-10-09T02:11:10.910Z,23.63
2018-10-09T02:13:39.624Z,23.23
2018-10-09T02:16:08.650Z,38.60
2018-10-09T02:18:37.197Z,41.47
2018-10-09T02:21:06.026Z,44.53
2018-10-09T02:23:34.511Z,44.70
2018-10-09T02:26:03.838Z,50.83
2018-10-09T02:28:32.869Z,54.80
2018-10-09T02:31:01.465Z,65.30
2018-10-09T02:33:29.974Z,60.97
2018-10-09T02:35:59.166Z,64.17
2018-10-09T02:38:27.757Z,42.33
2018-10-09T02:40:57.081Z,32.83
2018-10-09T02:43:25.694Z,39.77
2018-10-09T02:45:54.156Z,25.67
2018-10-09T02:48:22.807Z,28.40
2018-10-09T02:50:51.313Z,28.33
2018-10-09T02:53:19.925Z,20.47
2018-10-09T02:55:48.376Z,35.67
2018-10-09T02:58:16.942Z,65.90
2018-10-09T03:00:45.696Z,28.63
2018-10-09T03:03:14.804Z,29.60
2018-10-09T03:05:43.301Z,22.30
2018-10-09T03:08:11.979Z,22.73
2018-10-09T03:10:40.648Z,23.67
2018-10-09T03:13:10.238Z,18.70
2018-10-09T03:15:39.881Z,19.90
2018-10-09T03:18:08.720Z,37.20
2018-10-09T03:20:37.262Z,33.30
2018-10-09T03:23:06.592Z,41.73
2018-10-09T03:25:35.312Z,41.33
2018-10-09T03:28:03.842Z,42.37
2018-10-09T03:30:33.106Z,48.20
2018-10-09T03:33:01.578Z,51.63
2018-10-09T03:35:30.206Z,56.60
2018-10-09T03:37:58.706Z,30.87
2018-10-09T03:40:27.305Z,24.90
2018-10-09T03:42:55.768Z,37.47
2018-10-09T03:45:24.975Z,45.30
2018-10-09T03:47:53.618Z,59.60
2018-10-09T03:50:22.164Z,65.43
2018-10-09T03:52:51.023Z,65.80
2018-10-09T03:55:19.585Z,68.10
2018-10-09T03:57:48.119Z,71.20
2018-10-09T04:00:16.728Z,29.20
2018-10-09T04:02:45.204Z,22.30
2018-10-09T04:05:14.421Z,46.93
2018-10-09T04:07:43.129Z,60.93
2018-10-09T04:10:11.789Z,66.40
2018-10-09T04:12:40.927Z,95.83
2018-10-09T04:15:09.558Z,116.87
2018-10-09T04:17:38.624Z,149.07
2018-10-09T04:20:07.238Z,99.90
2018-10-09T04:22:35.729Z,80.50
2018-10-09T04:25:04.335Z,90.30
2018-10-09T04:27:32.804Z,98.53
2018-10-09T04:30:01.282Z,90.13
2018-10-09T04:32:29.869Z,100.93
2018-10-09T04:34:58.421Z,93.40
2018-10-09T04:37:27.003Z,44.63
2018-10-09T04:39:55.595Z,65.07
2018-10-09T04:42:24.458Z,25.27
2018-10-09T04:44:52.958Z,36.47
2018-10-09T04:47:21.437Z,28.73
2018-10-09T04:49:49.978Z,39.93
2018-10-09T04:52:18.501Z,28.73
2018-10-09T04:54:47.046Z,55.83
2018-10-09T04:57:15.502Z,45.20
2018-10-09T04:59:44.542Z,33.13
2018-10-09T05:02:13.007Z,23.33
2018-10-09T05:04:42.460Z,24.37
2018-10-09T05:07:11.025Z,18.17
2018-10-09T05:09:40.380Z,20.23
2018-10-09T05:12:08.923Z,44.10
2018-10-09T05:14:37.630Z,33.10
2018-10-09T05:17:06.297Z,55.03
2018-10-09T05:19:34.847Z,32.27
2018-10-09T05:22:03.539Z,33.23
2018-10-09T05:24:32.018Z,28.80
2018-10-09T05:27:00.563Z,50.53
2018-10-09T05:29:29.989Z,35.63
2018-10-09T05:31:58.544Z,62.57
2018-10-09T05:34:27.155Z,64.43
2018-10-09T05:36:56.248Z,73.80
2018-10-09T05:39:24.730Z,67.03
2018-10-09T05:41:53.289Z,43.63
2018-10-09T05:44:21.963Z,57.63
2018-10-09T05:46:50.900Z,29.53
2018-10-09T05:49:19.390Z,22.37
2018-10-09T05:51:47.871Z,28.40
2018-10-09T05:54:16.432Z,42.13
2018-10-09T05:56:45.025Z,21.27
2018-10-09T05:59:13.656Z,24.83
2018-10-09T06:01:42.846Z,23.83
2018-10-09T06:04:11.709Z,24.40
2018-10-09T06:06:40.323Z,46.20
2018-10-09T06:09:09.717Z,26.70
2018-10-09T06:11:39.426Z,53.73
2018-10-09T06:14:08.149Z,28.73
2018-10-09T06:16:36.689Z,36.30
2018-10-09T06:19:06.019Z,25.93
2018-10-09T06:21:34.507Z,25.50
2018-10-09T06:24:03.030Z,52.67
2018-10-09T06:26:31.559Z,42.83
2018-10-09T06:29:00.187Z,29.33
2018-10-09T06:31:29.262Z,39.67
2018-10-09T06:33:57.803Z,25.17
2018-10-09T06:36:26.225Z,23.47
2018-10-09T06:38:55.267Z,42.43
2018-10-09T06:41:23.704Z,36.33
2018-10-09T06:43:52.755Z,53.17
2018-10-09T06:46:21.394Z,40.00
2018-10-09T06:48:50.185Z,35.47
2018-10-09T06:51:18.682Z,30.80
2018-10-09T06:53:47.368Z,55.53
2018-10-09T06:56:16.209Z,42.17
2018-10-09T06:58:45.305Z,37.03
2018-10-09T07:01:13.793Z,25.20
2018-10-09T07:03:42.336Z,37.40
2018-10-09T07:06:12.506Z,57.07
2018-10-09T07:08:41.606Z,63.53
2018-10-09T07:11:10.864Z,41.70
2018-10-09T07:13:39.970Z,40.83
2018-10-09T07:16:08.650Z,61.97
2018-10-09T07:18:37.785Z,34.07
2018-10-09T07:21:06.499Z,36.80
2018-10-09T07:23:34.946Z,63.60
2018-10-09T07:26:03.395Z,56.00
2018-10-09T07:28:31.926Z,66.70
2018-10-09T07:31:00.410Z,68.27
2018-10-09T07:33:28.899Z,65.50
2018-10-09T07:35:57.493Z,68.07
2018-10-09T07:38:25.988Z,65.90
2018-10-09T07:40:54.536Z,69.47
2018-10-09T07:43:23.810Z,70.23
2018-10-09T07:45:52.382Z,69.77
2018-10-09T07:48:20.989Z,64.03
2018-10-09T07:50:49.504Z,68.33
2018-10-09T07:53:18.469Z,44.70
2018-10-09T07:55:47.442Z,73.03
2018-10-09T07:58:17.246Z,51.93
2018-10-09T08:00:45.874Z,58.70
2018-10-09T08:03:14.381Z,73.20
2018-10-09T08:05:42.883Z,44.60
2018-10-09T08:08:11.402Z,51.93
2018-10-09T08:10:39.984Z,67.03
2018-10-09T08:13:08.493Z,57.13
2018-10-09T08:15:37.847Z,58.50
2018-10-09T08:18:06.654Z,60.93
2018-10-09T08:20:35.126Z,62.00
2018-10-09T08:23:03.741Z,40.17
2018-10-09T08:25:32.242Z,61.30
2018-10-09T08:28:00.912Z,41.40
2018-10-09T08:30:29.509Z,43.80
2018-10-09T08:32:58.046Z,44.40
2018-10-09T08:35:26.620Z,43.83
2018-10-09T08:37:55.150Z,37.20
2018-10-09T08:40:23.684Z,39.33
2018-10-09T08:42:52.109Z,46.03
2018-10-09T08:45:21.289Z,48.77
2018-10-09T08:47:50.177Z,49.47
2018-10-09T08:50:18.728Z,50.30
2018-10-09T08:52:47.785Z,54.73
2018-10-09T08:55:17.125Z,57.27
2018-10-09T08:57:45.722Z,53.90
2018-10-09T09:00:14.227Z,50.60
2018-10-09T09:02:42.789Z,53.20
2018-10-09T09:05:11.267Z,38.87
2018-10-09T09:07:39.914Z,42.37
2018-10-09T09:10:08.434Z,55.23
2018-10-09T09:12:36.934Z,39.27
2018-10-09T09:15:05.562Z,55.23
2018-10-09T09:17:34.105Z,54.57
2018-10-09T09:20:02.676Z,48.27
2018-10-09T09:22:31.173Z,48.53
2018-10-09T09:24:59.838Z,38.07
2018-10-09T09:27:28.427Z,38.60
2018-10-09T09:29:56.889Z,50.03
2018-10-09T09:32:26.187Z,36.77
2018-10-09T09:34:54.753Z,38.27
2018-10-09T09:37:24.084Z,52.50
2018-10-09T09:39:52.644Z,44.83
2018-10-09T09:42:21.230Z,33.23
2018-10-09T09:44:49.781Z,43.13
2018-10-09T09:47:18.471Z,40.00
2018-10-09T09:49:47.204Z,44.40
2018-10-09T09:52:15.790Z,51.97
2018-10-09T09:54:44.263Z,41.90
2018-10-09T09:57:12.798Z,38.67
2018-10-09T09:59:42.070Z,43.43
2018-10-09T10:02:10.681Z,41.33
2018-10-09T10:04:39.998Z,45.93
2018-10-09T10:07:08.917Z,42.23
2018-10-09T10:09:37.603Z,46.17
2018-10-09T10:12:06.417Z,42.07
2018-10-09T10:14:34.928Z,39.60
2018-10-09T10:17:04.180Z,47.23
2018-10-09T10:19:32.848Z,48.40
2018-10-09T10:22:01.430Z,43.77
2018-10-09T10:24:29.961Z,44.93
2018-10-09T10:26:58.513Z,45.83
2018-10-09T10:29:27.007Z,41.73
2018-10-09T10:31:55.641Z,38.60
2018-10-09T10:34:24.979Z,45.40
2018-10-09T10:36:53.513Z,45.50
2018-10-09T10:39:22.149Z,44.23
2018-10-09T10:41:50.703Z,42.73
2018-10-09T10:44:19.979Z,42.57
2018-10-09T10:46:49.137Z,34.23
2018-10-09T10:49:18.772Z,26.80
2018-10-09T10:51:47.847Z,33.63
2018-10-09T10:54:17.072Z,22.57
2018-10-09T10:56:45.833Z,34.67
2018-10-09T10:59:14.540Z,36.80
2018-10-09T11:01:43.877Z,32.80
2018-10-09T11:04:13.083Z,35.90
2018-10-09T11:06:41.632Z,29.73
2018-10-09T11:09:10.911Z,29.00
2018-10-09T11:11:39.690Z,32.37
2018-10-09T11:14:08.212Z,35.17
2018-10-09T11:16:37.498Z,27.65
2018-10-09T11:19:06.077Z,28.52
2018-10-09T11:21:34.629Z,33.33
2018-10-09T11:24:03.410Z,25.97
2018-10-09T11:26:32.716Z,36.35
2018-10-09T11:29:01.243Z,33.23
2018-10-09T11:31:30.453Z,33.95
2018-10-09T11:33:59.008Z,28.10
2018-10-09T11:36:27.984Z,31.85
2018-10-09T11:38:57.166Z,33.35
2018-10-09T11:41:25.678Z,31.48
2018-10-09T11:43:54.257Z,34.75
2018-10-09T11:46:22.786Z,37.42
2018-10-09T11:48:52.014Z,22.80
2018-10-09T11:51:20.519Z,24.90
2018-10-09T11:53:48.987Z,19.45
2018-10-09T11:56:17.514Z,28.98
2018-10-09T11:58:46.218Z,29.20
2018-10-09T12:01:14.722Z,27.30
2018-10-09T12:03:44.191Z,22.80
2018-10-09T12:06:13.327Z,26.23
2018-10-09T12:08:41.845Z,22.60
2018-10-09T12:11:10.605Z,20.92
2018-10-09T12:13:39.292Z,19.32
2018-10-09T12:16:08.033Z,18.20
2018-10-09T12:18:36.576Z,20.30
2018-10-09T12:21:05.998Z,16.57
2018-10-09T12:23:34.782Z,15.50
2018-10-09T12:26:03.335Z,16.73
2018-10-09T12:28:32.749Z,19.40
2018-10-09T12:31:01.301Z,21.00
2018-10-09T12:33:30.614Z,21.17
2018-10-09T12:35:59.101Z,20.00
2018-10-09T12:38:27.764Z,19.20
2018-10-09T12:40:56.203Z,16.93
2018-10-09T12:43:24.760Z,16.50
2018-10-09T12:45:53.472Z,19.80
2018-10-09T12:48:22.554Z,18.80
2018-10-09T12:50:51.138Z,14.73
2018-10-09T12:53:19.808Z,17.20
2018-10-09T12:55:49.696Z,18.00
2018-10-09T12:58:19.915Z,20.05
2018-10-09T13:00:48.674Z,20.40
2018-10-09T13:03:18.315Z,18.00
2018-10-09T13:05:47.527Z,12.30
2018-10-09T13:08:16.025Z,17.27
2018-10-09T13:10:44.627Z,20.52
2018-10-09T13:13:13.422Z,19.35
2018-10-09T13:15:44.248Z,20.02
2018-10-09T13:18:20.045Z,15.43
2018-10-09T13:20:48.879Z,17.25
2018-10-09T13:23:19.151Z,18.82
2018-10-09T13:25:47.701Z,18.32
2018-10-09T13:28:16.421Z,16.95
2018-10-09T13:30:46.009Z,16.85
2018-10-09T13:33:19.378Z,15.63
2018-10-09T13:35:47.928Z,17.52
2018-10-09T13:38:16.580Z,16.80
2018-10-09T13:40:45.036Z,17.10
2018-10-09T13:43:13.651Z,17.82
2018-10-09T13:45:43.606Z,17.75
2018-10-09T13:48:12.394Z,12.58
2018-10-09T13:50:41.372Z,18.12
2018-10-09T13:53:10.040Z,12.23
2018-10-09T13:55:39.342Z,16.00
2018-10-09T13:58:07.867Z,15.78
2018-10-09T14:00:36.857Z,16.17
2018-10-09T14:03:05.682Z,16.82
2018-10-09T14:05:34.468Z,17.62
2018-10-09T14:08:02.965Z,18.10
2018-10-09T14:10:31.533Z,16.57
2018-10-09T14:13:01.332Z,15.48
2018-10-09T14:15:29.848Z,12.47
2018-10-09T14:17:58.509Z,12.35
2018-10-09T14:20:26.986Z,15.10
2018-10-09T14:22:58.029Z,13.85
2018-10-09T14:25:28.961Z,15.38
2018-10-09T14:27:57.525Z,16.70
2018-10-09T14:30:34.640Z,11.68
2018-10-09T14:33:03.357Z,13.28
2018-10-09T14:35:35.778Z,14.70
2018-10-09T14:38:04.563Z,10.55
2018-10-09T14:40:33.108Z,14.73
2018-10-09T14:43:01.731Z,13.55
2018-10-09T14:45:30.238Z,15.05
2018-10-09T14:47:58.703Z,15.18
2018-10-09T14:50:27.300Z,15.50
2018-10-09T14:52:55.783Z,15.00
2018-10-09T14:55:24.332Z,13.30
2018-10-09T14:57:53.671Z,15.28
2018-10-09T15:00:22.162Z,15.00
2018-10-09T15:02:50.830Z,15.70
2018-10-09T15:05:19.318Z,15.25
2018-10-09T15:07:47.853Z,14.15
2018-10-09T15:10:16.333Z,16.35
2018-10-09T15:12:45.314Z,14.40
2018-10-09T15:15:13.836Z,14.85
2018-10-09T15:17:42.365Z,13.93
2018-10-09T15:20:12.286Z,13.90
2018-10-09T15:22:40.780Z,14.67
2018-10-09T15:25:09.320Z,14.27
2018-10-09T15:27:37.838Z,15.70
2018-10-09T15:30:06.889Z,13.95
2018-10-09T15:32:35.373Z,12.33
2018-10-09T15:35:04.096Z,13.57
2018-10-09T15:37:32.613Z,12.50
2018-10-09T15:40:01.351Z,13.57
2018-10-09T15:42:29.869Z,12.10
2018-10-09T15:44:58.432Z,13.07
2018-10-09T15:47:27.436Z,12.67
2018-10-09T15:49:56.691Z,12.20
2018-10-09T15:52:25.247Z,12.67
2018-10-09T15:54:53.725Z,11.77
2018-10-09T15:57:22.219Z,13.10
2018-10-09T15:59:50.830Z,13.73
2018-10-09T16:02:20.106Z,10.73
2018-10-09T16:04:48.692Z,12.03
2018-10-09T16:07:17.269Z,11.37
2018-10-09T16:09:45.834Z,11.90
2018-10-09T16:12:14.434Z,11.00
2018-10-09T16:14:42.932Z,11.83
2018-10-09T16:17:11.441Z,12.30
2018-10-09T16:19:40.017Z,12.10
2018-10-09T16:22:08.631Z,12.37
2018-10-09T16:24:37.162Z,12.20
2018-10-09T16:27:05.737Z,13.43
2018-10-09T16:29:34.437Z,11.33
2018-10-09T16:32:02.922Z,10.60
2018-10-09T16:34:31.557Z,12.97
2018-10-09T16:37:00.102Z,13.17
2018-10-09T16:39:28.828Z,12.43
2018-10-09T16:41:57.401Z,11.83
2018-10-09T16:44:25.934Z,12.07
2018-10-09T16:46:55.138Z,13.60
2018-10-09T16:49:23.718Z,12.30
2018-10-09T16:51:52.211Z,12.90
2018-10-09T16:54:21.085Z,11.50
2018-10-09T16:56:49.629Z,10.97
2018-10-09T16:59:18.135Z,15.70
2018-10-09T17:01:48.062Z,14.53
2018-10-09T17:04:16.662Z,13.70
2018-10-09T17:06:45.285Z,16.97
2018-10-09T17:09:14.334Z,18.20
2018-10-09T17:11:43.640Z,18.63
2018-10-09T17:14:12.895Z,14.97
2018-10-09T17:16:41.556Z,16.13
2018-10-09T17:19:10.178Z,13.80
2018-10-09T17:21:38.750Z,17.80
2018-10-09T17:24:11.830Z,19.10
2018-10-09T17:26:40.489Z,15.30
2018-10-09T17:29:09.037Z,12.90
2018-10-09T17:31:37.775Z,19.53
2018-10-09T17:34:06.937Z,21.50
2018-10-09T17:36:36.620Z,22.13
2018-10-09T17:39:08.261Z,20.70
2018-10-09T17:41:36.974Z,25.03
2018-10-09T17:44:05.529Z,21.77
2018-10-09T17:46:34.308Z,25.10
2018-10-09T17:49:02.686Z,26.27
2018-10-09T17:51:31.456Z,25.77
2018-10-09T17:54:00.518Z,28.80
2018-10-09T17:56:29.020Z,30.70
2018-10-09T17:58:58.300Z,25.53
2018-10-09T18:01:26.975Z,28.33
2018-10-09T18:03:55.560Z,25.10
2018-10-09T18:06:24.215Z,24.70
2018-10-09T18:08:53.489Z,28.73
2018-10-09T18:11:22.096Z,30.33
2018-10-09T18:13:50.602Z,27.43
2018-10-09T18:16:19.901Z,32.90
2018-10-09T18:18:48.438Z,32.97
2018-10-09T18:21:17.005Z,31.00
2018-10-09T18:23:45.572Z,31.97
2018-10-09T18:26:14.720Z,33.23
2018-10-09T18:28:43.792Z,31.63
2018-10-09T18:31:12.401Z,22.97
2018-10-09T18:33:41.734Z,29.70
2018-10-09T18:36:11.090Z,32.53
2018-10-09T18:38:39.629Z,18.87
2018-10-09T18:41:08.401Z,20.03
2018-10-09T18:43:36.986Z,34.30
2018-10-09T18:46:05.581Z,26.37
2018-10-09T18:48:34.177Z,31.57
2018-10-09T18:51:02.842Z,36.67
2018-10-09T18:53:31.454Z,27.47
2018-10-09T18:56:00.826Z,39.17
2018-10-09T18:58:29.501Z,37.40
2018-10-09T19:00:58.091Z,22.20
2018-10-09T19:03:27.603Z,38.83
2018-10-09T19:05:56.163Z,37.37
2018-10-09T19:08:24.802Z,23.60
2018-10-09T19:10:54.258Z,18.43
2018-10-09T19:13:22.810Z,29.07
2018-10-09T19:15:51.453Z,24.10
2018-10-09T19:18:19.988Z,18.03
2018-10-09T19:20:48.545Z,33.13
2018-10-09T19:23:17.129Z,28.40
2018-10-09T19:25:45.697Z,30.30
2018-10-09T19:28:14.250Z,23.80
2018-10-09T19:30:42.762Z,26.57
2018-10-09T19:33:11.525Z,45.50
2018-10-09T19:35:40.760Z,45.27
2018-10-09T19:38:09.370Z,39.53
2018-10-09T19:40:37.946Z,45.93
2018-10-09T19:43:06.555Z,46.23
2018-10-09T19:45:35.651Z,42.73
2018-10-09T19:48:04.311Z,45.83
2018-10-09T19:50:33.708Z,45.57
2018-10-09T19:53:02.314Z,23.07
2018-10-09T19:55:30.795Z,20.73
2018-10-09T19:57:59.338Z,25.93
2018-10-09T20:00:28.736Z,21.87
2018-10-09T20:02:57.310Z,37.20
2018-10-09T20:05:25.789Z,41.57
2018-10-09T20:07:54.307Z,35.83
2018-10-09T20:10:22.938Z,43.77
2018-10-09T20:12:51.784Z,47.33
2018-10-09T20:15:20.437Z,43.57
2018-10-09T20:17:49.506Z,49.43
2018-10-09T20:20:18.177Z,47.50
2018-10-09T20:22:46.955Z,48.97
2018-10-09T20:25:15.479Z,51.33
2018-10-09T20:27:44.130Z,47.37
2018-10-09T20:30:12.644Z,49.13
2018-10-09T20:32:41.204Z,49.20
2018-10-09T20:35:09.781Z,49.57
2018-10-09T20:37:38.309Z,28.87
2018-10-09T20:40:06.990Z,35.33
2018-10-09T20:42:35.487Z,31.90
2018-10-09T20:45:04.136Z,23.90
2018-10-09T20:47:38.651Z,48.50
2018-10-09T20:50:07.318Z,52.57
2018-10-09T20:52:35.861Z,42.17
2018-10-09T20:55:05.253Z,34.90
2018-10-09T20:57:33.753Z,51.43
2018-10-09T21:00:02.319Z,52.17
2018-10-09T21:02:31.099Z,60.37
2018-10-09T21:05:00.265Z,55.10
2018-10-09T21:07:28.896Z,49.03
2018-10-09T21:09:57.417Z,53.37
2018-10-09T21:12:25.927Z,56.10
2018-10-09T21:14:55.402Z,58.63
2018-10-09T21:17:23.944Z,57.43
2018-10-09T21:19:52.478Z,55.80
2018-10-09T21:22:21.013Z,60.13
2018-10-09T21:24:49.600Z,56.10
2018-10-09T21:27:18.144Z,59.93
2018-10-09T21:29:46.816Z,55.87
2018-10-09T21:32:16.223Z,58.87
2018-10-09T21:34:44.835Z,63.10
2018-10-09T21:37:13.930Z,59.77
2018-10-09T21:39:42.919Z,48.23
2018-10-09T21:42:11.438Z,55.20
2018-10-09T21:44:40.008Z,30.07
2018-10-09T21:47:08.577Z,41.33
2018-10-09T21:49:37.097Z,32.13
2018-10-09T21:52:05.659Z,46.80
2018-10-09T21:54:34.204Z,54.00
2018-10-09T21:57:03.470Z,62.17
2018-10-09T21:59:32.157Z,54.73
2018-10-09T22:02:00.739Z,42.07
2018-10-09T22:04:29.438Z,42.37
2018-10-09T22:06:57.980Z,44.53
2018-10-09T22:09:26.837Z,60.43
2018-10-09T22:11:55.549Z,40.03
2018-10-09T22:14:24.083Z,54.50
2018-10-09T22:16:53.313Z,33.63
2018-10-09T22:19:21.921Z,24.47
2018-10-09T22:21:50.436Z,57.63
2018-10-09T22:24:26.469Z,46.30
2018-10-09T22:26:55.076Z,42.57
2018-10-09T22:29:23.658Z,30.17
2018-10-09T22:31:52.213Z,45.70
2018-10-09T22:34:20.978Z,55.53
2018-10-09T22:36:49.511Z,30.20
2018-10-09T22:39:18.109Z,33.43
2018-10-09T22:41:46.674Z,18.30
2018-10-09T22:44:15.224Z,25.37
2018-10-09T22:46:43.773Z,37.23
2018-10-09T22:49:12.454Z,34.07
2018-10-09T22:51:41.014Z,37.37
2018-10-09T22:54:09.540Z,53.17
2018-10-09T22:56:38.097Z,45.20
2018-10-09T22:59:06.575Z,33.47
2018-10-09T23:01:35.074Z,22.13
2018-10-09T23:04:03.591Z,26.63
2018-10-09T23:06:32.158Z,48.70
2018-10-09T23:09:00.664Z,61.97
2018-10-09T23:11:29.239Z,49.50
2018-10-09T23:13:57.717Z,28.53
2018-10-09T23:16:26.264Z,50.43
2018-10-09T23:18:54.761Z,61.13
2018-10-09T23:21:23.307Z,30.47
2018-10-09T23:23:52.808Z,24.13
2018-10-09T23:26:21.282Z,40.47
2018-10-09T23:28:49.906Z,23.73
2018-10-09T23:31:19.224Z,52.60
2018-10-09T23:33:48.310Z,33.53
2018-10-09T23:36:17.347Z,26.07
2018-10-09T23:38:45.910Z,47.77
2018-10-09T23:41:14.403Z,31.90
2018-10-09T23:43:42.870Z,24.07
2018-10-09T23:46:11.514Z,32.53
2018-10-09T23:48:40.007Z,50.17
2018-10-09T23:51:08.878Z,50.63
2018-10-09T23:53:37.478Z,55.37
2018-10-09T23:56:06.156Z,26.40
2018-10-09T23:58:34.814Z,23.67
